Time;durP1;ratioP1;P1;durP2;ratioP2;P2;SDS_P1;SDS_P2;PMS_P1;PMS_P2;Temp;Humidity;BMP_temperature;BMP_pressure;BME280_temperature;BME280_humidity;BME280_pressure;Samples;Min_cycle;Max_cycle;Signal;HPM_P1;HPM_P2
2023/08/08 00:00:06;;;;;;;2.45;1.35;;;9.70;99.90;;;;;;5008358;28;20094;-81
2023/08/08 00:02:32;;;;;;;1.75;0.88;;;9.70;99.90;;;;;;5010308;28;20105;-78
2023/08/08 00:04:57;;;;;;;1.35;1.25;;;9.70;99.90;;;;;;5010456;28;20065;-80
2023/08/08 00:07:23;;;;;;;2.17;1.23;;;9.70;99.90;;;;;;5009140;28;20082;-79
2023/08/08 00:09:49;;;;;;;1.70;1.08;;;9.70;99.90;;;;;;5004758;28;20430;-77
2023/08/08 00:12:14;;;;;;;2.50;1.13;;;9.70;99.90;;;;;;4994181;28;20030;-80
2023/08/08 00:14:40;;;;;;;1.10;1.00;;;9.70;99.90;;;;;;5012894;28;20026;-78
2023/08/08 00:17:06;;;;;;;1.63;0.80;;;9.70;99.90;;;;;;5011741;28;20010;-75
2023/08/08 00:19:31;;;;;;;1.13;0.95;;;9.60;99.90;;;;;;4994395;28;20073;-77
2023/08/08 00:21:57;;;;;;;0.80;0.80;;;9.50;99.90;;;;;;5009644;28;20066;-81
2023/08/08 00:24:23;;;;;;;1.02;0.95;;;9.50;99.90;;;;;;4997207;28;20046;-79
2023/08/08 00:26:49;;;;;;;1.67;1.08;;;9.60;99.90;;;;;;5011911;28;20027;-80
2023/08/08 00:29:14;;;;;;;0.88;0.70;;;9.60;99.90;;;;;;4992683;28;20022;-79
2023/08/08 00:31:40;;;;;;;1.85;1.00;;;9.60;99.90;;;;;;5009044;28;20101;-79
2023/08/08 00:34:09;;;;;;;1.40;1.30;;;9.50;99.90;;;;;;4992497;28;20034;-77
2023/08/08 00:36:34;;;;;;;0.83;0.83;;;9.50;99.90;;;;;;5010240;28;20026;-76
2023/08/08 00:39:00;;;;;;;1.10;1.02;;;9.40;99.90;;;;;;5007427;28;20030;-76
2023/08/08 00:41:26;;;;;;;1.20;1.10;;;9.40;99.90;;;;;;5008073;28;20029;-79
2023/08/08 00:43:51;;;;;;;0.90;0.90;;;9.40;99.90;;;;;;5007955;28;20395;-76
2023/08/08 00:46:21;;;;;;;0.90;0.80;;;9.40;99.90;;;;;;5007393;28;20060;-80
2023/08/08 00:48:47;;;;;;;2.95;1.00;;;9.40;99.90;;;;;;5008795;28;20029;-77
2023/08/08 00:51:13;;;;;;;2.63;0.95;;;9.30;99.90;;;;;;5007139;28;20472;-77
2023/08/08 00:53:39;;;;;;;0.95;0.85;;;9.30;99.90;;;;;;5008198;28;20022;-76
2023/08/08 00:56:06;;;;;;;3.03;1.10;;;9.20;99.90;;;;;;5009317;28;20506;-77
2023/08/08 00:58:32;;;;;;;3.90;1.75;;;9.30;99.90;;;;;;5006790;28;20097;-82
2023/08/08 01:00:59;;;;;;;1.65;1.00;;;9.30;99.90;;;;;;5008411;28;20026;-79
2023/08/08 01:03:26;;;;;;;1.30;1.15;;;9.20;99.90;;;;;;5007501;28;20026;-78
2023/08/08 01:06:02;;;;;;;1.48;1.10;;;9.20;99.90;;;;;;5008165;28;20054;-80
2023/08/08 01:08:38;;;;;;;1.73;1.38;;;9.30;99.90;;;;;;5010640;28;20057;-79
2023/08/08 01:11:05;;;;;;;2.17;1.38;;;9.20;99.90;;;;;;4994165;28;20031;-78
2023/08/08 01:13:33;;;;;;;1.83;1.10;;;9.10;99.90;;;;;;5006857;28;20027;-77
2023/08/08 01:15:59;;;;;;;2.28;0.88;;;9.00;99.90;;;;;;5008357;28;20092;-78
2023/08/08 01:18:26;;;;;;;1.55;1.45;;;9.00;99.90;;;;;;4993090;28;20014;-77
2023/08/08 01:20:54;;;;;;;0.85;0.85;;;9.00;99.90;;;;;;5009047;28;20057;-76
2023/08/08 01:23:46;;;;;;;1.17;1.07;;;8.90;99.90;;;;;;4991878;28;20033;-80
2023/08/08 01:26:12;;;;;;;1.42;0.80;;;8.90;99.90;;;;;;5009929;28;20331;-78
2023/08/08 01:28:39;;;;;;;1.20;0.90;;;8.80;99.90;;;;;;5009999;28;20022;-80
2023/08/08 01:31:05;;;;;;;1.35;1.25;;;8.80;99.90;;;;;;5008573;28;20014;-78
2023/08/08 01:33:31;;;;;;;1.15;0.82;;;8.70;99.90;;;;;;4993420;28;20010;-81
2023/08/08 01:36:03;;;;;;;2.97;1.27;;;8.60;99.90;;;;;;5010338;28;20038;-79
2023/08/08 01:38:41;;;;;;;3.05;0.88;;;8.60;99.90;;;;;;5011551;28;20049;-80
2023/08/08 01:41:08;;;;;;;1.58;0.95;;;8.70;99.90;;;;;;4992912;28;20038;-81
2023/08/08 01:43:35;;;;;;;1.25;1.20;;;8.60;99.90;;;;;;4993807;28;20046;-76
2023/08/08 01:46:02;;;;;;;1.17;1.17;;;8.70;99.90;;;;;;5009762;28;20496;-76
2023/08/08 01:48:28;;;;;;;3.45;1.30;;;8.70;99.90;;;;;;4992481;28;20034;-80
2023/08/08 01:50:54;;;;;;;1.77;1.00;;;8.70;99.90;;;;;;5009771;28;20026;-80
2023/08/08 01:53:20;;;;;;;0.82;0.52;;;8.80;99.90;;;;;;5010102;28;20022;-78
2023/08/08 01:55:46;;;;;;;1.20;0.95;;;8.80;99.90;;;;;;5010890;28;20025;-79
2023/08/08 01:58:11;;;;;;;1.65;1.05;;;8.90;99.90;;;;;;4994278;28;20098;-80
2023/08/08 02:00:37;;;;;;;0.98;0.77;;;9.00;99.90;;;;;;5010531;28;20076;-78
2023/08/08 02:03:03;;;;;;;0.60;0.60;;;8.90;99.90;;;;;;5010671;28;20027;-76
2023/08/08 02:05:29;;;;;;;2.15;0.90;;;8.90;99.90;;;;;;5011917;28;20061;-77
2023/08/08 02:07:55;;;;;;;1.10;1.00;;;8.80;99.90;;;;;;5012162;28;20018;-80
2023/08/08 02:10:21;;;;;;;0.65;0.65;;;8.80;99.90;;;;;;5009399;28;20258;-77
2023/08/08 02:12:46;;;;;;;1.73;1.00;;;8.90;99.90;;;;;;5010180;28;20403;-77
2023/08/08 02:15:12;;;;;;;0.90;0.90;;;8.90;99.90;;;;;;5007820;28;20027;-77
2023/08/08 02:17:38;;;;;;;1.20;1.20;;;8.80;99.90;;;;;;5009464;28;20082;-81
2023/08/08 02:20:06;;;;;;;0.80;0.80;;;8.80;99.90;;;;;;5009509;28;20074;-79
2023/08/08 02:22:32;;;;;;;0.98;0.85;;;8.90;99.90;;;;;;5011769;28;20032;-81
2023/08/08 02:24:58;;;;;;;2.17;1.00;;;8.90;99.90;;;;;;5010159;28;20051;-80
2023/08/08 02:27:23;;;;;;;1.30;1.08;;;8.90;99.90;;;;;;5011315;28;20030;-78
2023/08/08 02:29:49;;;;;;;2.25;0.90;;;8.80;99.90;;;;;;5010621;28;20093;-80
2023/08/08 02:32:15;;;;;;;3.72;1.02;;;8.70;99.90;;;;;;5010222;28;20009;-76
2023/08/08 02:34:41;;;;;;;0.88;0.88;;;8.60;99.90;;;;;;5008733;28;20061;-79
2023/08/08 02:37:06;;;;;;;1.00;0.90;;;8.60;99.90;;;;;;5009688;28;20022;-81
2023/08/08 02:39:32;;;;;;;1.80;1.38;;;8.60;99.90;;;;;;5010447;28;20717;-79
2023/08/08 02:41:59;;;;;;;1.92;0.80;;;8.50;99.90;;;;;;5010610;28;20102;-77
2023/08/08 02:44:25;;;;;;;1.40;1.30;;;8.60;99.90;;;;;;5010969;28;20042;-79
2023/08/08 02:46:51;;;;;;;1.17;1.00;;;8.60;99.90;;;;;;5010491;28;20097;-78
2023/08/08 02:49:16;;;;;;;1.25;1.10;;;8.80;99.90;;;;;;5010520;28;20029;-77
2023/08/08 02:51:42;;;;;;;1.35;1.02;;;8.80;99.90;;;;;;5009999;28;20023;-78
2023/08/08 02:54:08;;;;;;;1.67;0.82;;;8.90;99.90;;;;;;5012552;28;20033;-78
2023/08/08 02:56:33;;;;;;;0.85;0.85;;;8.80;99.90;;;;;;5009406;28;20188;-76
2023/08/08 02:58:59;;;;;;;2.65;0.88;;;8.80;99.90;;;;;;5008508;28;20038;-77
2023/08/08 03:01:25;;;;;;;3.30;0.80;;;8.80;99.90;;;;;;5008954;28;20482;-78
2023/08/08 03:03:52;;;;;;;1.95;1.08;;;8.80;99.90;;;;;;5008217;28;20465;-78
2023/08/08 03:06:18;;;;;;;0.98;0.88;;;8.90;99.90;;;;;;5008929;28;20042;-80
2023/08/08 03:08:43;;;;;;;3.75;1.42;;;8.90;99.90;;;;;;5008463;28;20009;-76
2023/08/08 03:11:09;;;;;;;0.75;0.70;;;8.80;99.90;;;;;;5010340;28;20050;-80
2023/08/08 03:13:37;;;;;;;3.05;0.70;;;8.80;99.90;;;;;;5008423;28;20078;-76
2023/08/08 03:16:02;;;;;;;1.15;1.10;;;8.80;99.90;;;;;;5008738;28;20443;-76
2023/08/08 03:18:28;;;;;;;1.40;0.88;;;8.90;99.90;;;;;;4992031;28;20090;-77
2023/08/08 03:20:54;;;;;;;1.70;0.98;;;8.80;99.90;;;;;;5010203;28;20022;-76
2023/08/08 03:23:20;;;;;;;2.45;1.58;;;8.80;99.90;;;;;;5008620;28;20076;-81
2023/08/08 03:25:45;;;;;;;2.58;1.20;;;8.70;99.90;;;;;;5009611;28;20022;-78
2023/08/08 03:28:11;;;;;;;2.65;0.93;;;8.70;99.90;;;;;;5008706;28;20026;-80
2023/08/08 03:30:38;;;;;;;1.88;1.25;;;8.60;99.90;;;;;;5007625;28;20027;-79
2023/08/08 03:33:04;;;;;;;1.92;0.75;;;8.50;99.90;;;;;;5009646;28;20026;-78
2023/08/08 03:35:30;;;;;;;1.08;0.82;;;8.40;99.90;;;;;;5008632;28;20026;-79
2023/08/08 03:37:56;;;;;;;1.02;1.02;;;8.40;99.90;;;;;;4992000;28;20077;-79
2023/08/08 03:40:22;;;;;;;1.00;1.00;;;8.30;99.90;;;;;;4992000;28;20052;-77
2023/08/08 03:42:47;;;;;;;1.13;0.70;;;8.30;99.90;;;;;;5009364;28;20130;-80
2023/08/08 03:45:13;;;;;;;1.77;1.08;;;8.30;99.90;;;;;;5006931;28;20475;-80
2023/08/08 03:47:39;;;;;;;1.05;0.98;;;8.20;99.90;;;;;;5005750;28;20030;-77
2023/08/08 03:50:06;;;;;;;1.40;1.30;;;8.30;99.90;;;;;;5005126;28;20502;-77
2023/08/08 03:52:35;;;;;;;1.48;1.23;;;8.20;99.90;;;;;;5006055;28;20026;-78
2023/08/08 03:55:01;;;;;;;0.98;0.98;;;8.10;99.90;;;;;;5004718;28;20029;-76
2023/08/08 03:57:27;;;;;;;1.00;0.90;;;8.10;99.90;;;;;;5005564;28;20479;-77
2023/08/08 03:59:52;;;;;;;0.88;0.88;;;8.00;99.90;;;;;;5005695;28;20073;-77
2023/08/08 04:02:18;;;;;;;3.40;1.25;;;8.00;99.90;;;;;;5005567;28;20018;-77
2023/08/08 04:04:44;;;;;;;2.20;0.90;;;8.00;99.90;;;;;;4988658;28;20049;-80
2023/08/08 04:07:12;;;;;;;1.73;1.60;;;8.00;99.90;;;;;;5006562;28;20037;-76
2023/08/08 04:09:42;;;;;;;1.13;1.10;;;8.00;99.90;;;;;;4988555;28;20084;-80
2023/08/08 04:12:09;;;;;;;0.88;0.80;;;7.90;99.90;;;;;;5006136;28;20019;-82
2023/08/08 04:14:37;;;;;;;2.92;0.93;;;7.90;99.90;;;;;;5005397;28;20050;-77
2023/08/08 04:17:04;;;;;;;0.75;0.75;;;8.00;99.90;;;;;;4987802;28;20006;-77
2023/08/08 04:19:30;;;;;;;1.60;0.80;;;8.00;99.90;;;;;;5006509;28;20022;-76
2023/08/08 04:21:56;;;;;;;2.28;0.85;;;8.00;99.90;;;;;;5006904;28;20510;-77
2023/08/08 04:24:21;;;;;;;1.00;0.90;;;8.10;99.90;;;;;;5006198;28;20046;-80
2023/08/08 04:26:47;;;;;;;0.80;0.80;;;8.00;99.90;;;;;;5006242;28;20034;-77
2023/08/08 04:29:13;;;;;;;1.00;1.00;;;8.20;99.90;;;;;;4989078;28;20034;-77
2023/08/08 04:31:39;;;;;;;1.55;1.10;;;8.10;99.90;;;;;;5004252;28;20105;-78
2023/08/08 04:34:05;;;;;;;6.85;1.60;;;8.20;99.90;;;;;;5006508;28;20033;-81
2023/08/08 04:36:31;;;;;;;0.80;0.80;;;8.20;99.90;;;;;;5008926;28;20023;-76
2023/08/08 04:38:56;;;;;;;1.40;0.80;;;8.20;99.90;;;;;;4991426;28;20026;-76
2023/08/08 04:41:22;;;;;;;2.15;1.00;;;8.30;99.90;;;;;;5008560;28;20089;-80
2023/08/08 04:43:48;;;;;;;1.45;1.30;;;8.50;99.90;;;;;;5008561;28;20033;-79
2023/08/08 04:46:13;;;;;;;1.23;1.10;;;8.60;99.90;;;;;;5009871;28;20053;-80
2023/08/08 04:48:39;;;;;;;1.20;1.10;;;8.80;99.90;;;;;;5009037;28;20026;-80
2023/08/08 04:51:05;;;;;;;0.90;0.90;;;8.90;99.90;;;;;;5007455;28;20018;-80
2023/08/08 04:53:31;;;;;;;1.50;0.82;;;9.10;99.90;;;;;;5007724;28;20535;-77
2023/08/08 04:55:57;;;;;;;0.90;0.90;;;9.10;99.90;;;;;;5008158;28;20034;-77
2023/08/08 04:58:22;;;;;;;2.58;1.13;;;9.20;99.90;;;;;;5007340;28;20042;-77
2023/08/08 05:00:50;;;;;;;2.45;1.08;;;9.30;99.90;;;;;;5007194;28;20029;-80
2023/08/08 05:03:16;;;;;;;1.25;0.70;;;9.40;99.90;;;;;;5005548;28;20521;-80
2023/08/08 05:05:44;;;;;;;3.47;1.00;;;9.50;99.90;;;;;;5000641;28;20030;-80
2023/08/08 05:08:10;;;;;;;1.27;0.82;;;9.60;99.90;;;;;;5001548;28;20033;-77
2023/08/08 05:10:36;;;;;;;1.85;0.70;;;9.80;99.90;;;;;;5001936;28;20084;-80
2023/08/08 05:13:02;;;;;;;1.60;0.93;;;10.00;99.90;;;;;;5001575;28;20023;-76
2023/08/08 05:15:27;;;;;;;1.40;1.25;;;10.20;99.90;;;;;;5001143;28;20110;-80
2023/08/08 05:17:54;;;;;;;3.78;0.90;;;10.30;99.90;;;;;;5003094;28;20054;-77
2023/08/08 05:20:21;;;;;;;8.57;1.00;;;10.50;99.90;;;;;;4986407;28;20370;-77
2023/08/08 05:22:46;;;;;;;0.88;0.88;;;10.70;99.90;;;;;;5002157;28;20061;-80
2023/08/08 05:25:12;;;;;;;0.95;0.95;;;10.90;99.90;;;;;;5005546;28;20042;-76
2023/08/08 05:27:38;;;;;;;7.63;1.00;;;11.10;99.90;;;;;;5003529;28;20105;-77
2023/08/08 05:30:04;;;;;;;1.77;0.98;;;11.30;99.90;;;;;;5004507;28;20027;-77
2023/08/08 05:32:30;;;;;;;0.70;0.70;;;11.40;99.90;;;;;;5010130;28;20028;-79
2023/08/08 05:34:57;;;;;;;3.47;1.17;;;11.60;99.90;;;;;;5005660;28;20058;-76
2023/08/08 05:37:23;;;;;;;1.13;0.90;;;11.70;99.90;;;;;;5006853;28;20026;-77
2023/08/08 05:39:49;;;;;;;0.95;0.88;;;11.90;99.90;;;;;;5007681;28;20564;-78
2023/08/08 05:42:15;;;;;;;1.63;1.30;;;12.10;99.90;;;;;;5005975;28;20019;-77
2023/08/08 05:44:44;;;;;;;1.38;0.60;;;12.30;99.90;;;;;;5006597;28;20041;-78
2023/08/08 05:47:10;;;;;;;1.08;0.90;;;12.30;99.90;;;;;;5009037;28;20109;-79
2023/08/08 05:49:37;;;;;;;10.82;1.50;;;12.40;99.90;;;;;;5011112;28;20034;-79
2023/08/08 05:52:03;;;;;;;0.70;0.70;;;12.40;99.90;;;;;;5009172;28;20101;-80
2023/08/08 05:54:29;;;;;;;0.63;0.63;;;12.60;99.90;;;;;;5009157;28;20419;-77
2023/08/08 05:56:55;;;;;;;2.50;1.13;;;12.60;99.90;;;;;;4989367;28;20475;-77
2023/08/08 05:59:20;;;;;;;3.58;0.90;;;12.70;99.90;;;;;;5002500;28;20046;-80
2023/08/08 06:01:46;;;;;;;2.88;0.88;;;12.80;99.90;;;;;;4982483;28;20027;-80
2023/08/08 06:04:12;;;;;;;1.17;0.90;;;13.00;99.90;;;;;;5005180;28;20038;-78
2023/08/08 06:06:38;;;;;;;3.10;1.15;;;13.30;99.90;;;;;;5009106;28;20025;-77
2023/08/08 06:09:04;;;;;;;1.55;1.40;;;13.50;99.90;;;;;;5007488;28;20027;-78
2023/08/08 06:11:30;;;;;;;1.13;1.10;;;13.60;99.90;;;;;;5006769;28;20313;-80
2023/08/08 06:13:55;;;;;;;1.10;1.00;;;13.90;99.90;;;;;;4980289;28;20034;-76
2023/08/08 06:16:22;;;;;;;0.90;0.90;;;14.30;99.90;;;;;;4984409;28;20122;-76
2023/08/08 06:18:48;;;;;;;1.58;1.48;;;14.70;99.90;;;;;;5002580;28;20027;-77
2023/08/08 06:21:13;;;;;;;1.15;0.90;;;15.10;99.90;;;;;;5001200;28;20069;-76
2023/08/08 06:23:39;;;;;;;0.82;0.82;;;15.40;99.90;;;;;;5005549;28;20030;-78
2023/08/08 06:26:05;;;;;;;1.17;0.90;;;15.70;99.90;;;;;;4998454;28;20030;-77
2023/08/08 06:28:31;;;;;;;1.85;1.02;;;16.00;99.90;;;;;;4998556;28;20479;-76
2023/08/08 06:30:58;;;;;;;2.05;1.27;;;16.00;99.90;;;;;;4991837;28;20042;-78
2023/08/08 06:33:23;;;;;;;1.83;1.15;;;16.10;99.90;;;;;;4993362;28;20030;-77
2023/08/08 06:35:49;;;;;;;1.55;1.27;;;16.10;99.90;;;;;;4997471;28;20375;-76
2023/08/08 06:38:15;;;;;;;1.15;0.90;;;16.20;99.90;;;;;;4998571;28;20026;-80
2023/08/08 06:40:41;;;;;;;3.80;1.10;;;16.40;99.90;;;;;;4989981;28;20192;-78
2023/08/08 06:43:07;;;;;;;0.88;0.85;;;16.50;99.90;;;;;;4990814;28;20045;-80
2023/08/08 06:45:32;;;;;;;0.80;0.80;;;16.60;99.90;;;;;;4990337;28;20038;-77
2023/08/08 06:47:59;;;;;;;0.90;0.90;;;16.70;99.90;;;;;;4989687;28;20054;-79
2023/08/08 06:50:25;;;;;;;1.30;1.00;;;16.90;99.90;;;;;;4990779;28;20081;-77
2023/08/08 06:52:51;;;;;;;5.15;1.20;;;17.10;99.90;;;;;;4990681;28;20061;-76
2023/08/08 06:55:17;;;;;;;2.30;1.02;;;17.20;99.90;;;;;;4995888;28;20057;-79
2023/08/08 06:57:43;;;;;;;1.15;0.85;;;17.30;99.90;;;;;;5004031;28;20483;-77
2023/08/08 07:00:11;;;;;;;1.48;0.90;;;17.10;99.90;;;;;;4988303;28;20050;-77
2023/08/08 07:02:37;;;;;;;1.17;0.80;;;17.30;99.90;;;;;;4989205;28;20062;-78
2023/08/08 07:05:03;;;;;;;0.88;0.70;;;17.50;99.90;;;;;;4988947;28;20065;-77
2023/08/08 07:07:30;;;;;;;3.50;1.00;;;17.60;99.90;;;;;;4990803;28;20093;-81
2023/08/08 07:09:56;;;;;;;1.52;0.90;;;17.80;99.90;;;;;;4991183;28;20046;-77
2023/08/08 07:12:22;;;;;;;0.55;0.55;;;17.90;99.90;;;;;;4991292;28;20064;-76
2023/08/08 07:14:47;;;;;;;1.50;1.35;;;17.90;99.90;;;;;;5004574;28;20065;-77
2023/08/08 07:17:13;;;;;;;2.03;0.90;;;17.90;99.90;;;;;;5000780;28;20021;-76
2023/08/08 07:19:41;;;;;;;2.00;0.82;;;17.90;99.90;;;;;;5003557;28;20063;-77
2023/08/08 07:22:06;;;;;;;0.88;0.70;;;18.10;99.90;;;;;;4993076;28;20032;-76
2023/08/08 07:24:32;;;;;;;2.85;1.17;;;18.10;99.90;;;;;;4990091;28;20034;-80
2023/08/08 07:26:59;;;;;;;2.70;1.20;;;18.30;99.90;;;;;;4989886;28;20093;-77
2023/08/08 07:29:25;;;;;;;2.05;0.70;;;18.50;99.90;;;;;;4990168;28;20030;-75
2023/08/08 07:31:52;;;;;;;2.42;1.00;;;18.50;99.90;;;;;;4989642;28;20109;-75
2023/08/08 07:34:18;;;;;;;1.80;1.00;;;18.50;99.90;;;;;;4990637;28;20022;-76
2023/08/08 07:36:44;;;;;;;1.13;0.90;;;18.40;99.90;;;;;;4973257;28;20065;-75
2023/08/08 07:39:10;;;;;;;1.13;1.05;;;18.10;99.90;;;;;;4990465;28;20454;-75
2023/08/08 07:41:36;;;;;;;1.70;1.23;;;18.00;99.90;;;;;;4990605;28;20548;-75
2023/08/08 07:44:02;;;;;;;2.17;0.80;;;18.10;99.90;;;;;;4990799;28;20503;-77
2023/08/08 07:46:28;;;;;;;0.80;0.80;;;18.30;99.90;;;;;;4990114;28;20475;-77
2023/08/08 07:48:53;;;;;;;0.60;0.60;;;18.50;99.90;;;;;;4989763;28;20057;-74
2023/08/08 07:51:19;;;;;;;1.38;0.80;;;18.80;99.90;;;;;;4990063;28;20031;-77
2023/08/08 07:53:45;;;;;;;1.85;1.15;;;19.00;99.90;;;;;;4995360;28;20262;-74
2023/08/08 07:56:10;;;;;;;0.70;0.70;;;19.20;99.90;;;;;;4991608;28;20070;-75
2023/08/08 07:58:36;;;;;;;2.08;0.80;;;19.10;99.90;;;;;;4995664;28;20400;-77
2023/08/08 08:01:01;;;;;;;0.93;0.93;;;19.60;99.90;;;;;;4993506;28;20025;-77
2023/08/08 08:03:27;;;;;;;1.77;0.80;;;19.50;99.90;;;;;;4987329;28;20028;-77
2023/08/08 08:05:53;;;;;;;3.60;1.13;;;19.50;99.90;;;;;;4987336;28;20311;-76
2023/08/08 08:08:19;;;;;;;2.28;0.85;;;19.50;99.90;;;;;;4988182;28;20132;-73
2023/08/08 08:10:45;;;;;;;3.50;1.08;;;19.70;99.90;;;;;;4988073;28;20544;-73
2023/08/08 08:13:11;;;;;;;0.60;0.57;;;20.00;99.90;;;;;;4989850;28;20325;-76
2023/08/08 08:15:38;;;;;;;2.05;0.93;;;20.40;99.90;;;;;;4991075;28;20414;-75
2023/08/08 08:18:03;;;;;;;0.93;0.93;;;21.10;98.00;;;;;;4992577;28;20021;-74
2023/08/08 08:20:29;;;;;;;1.05;0.70;;;21.50;97.90;;;;;;4993459;28;20034;-75
2023/08/08 08:22:55;;;;;;;1.05;0.70;;;22.00;95.00;;;;;;4993284;28;20046;-79
2023/08/08 08:25:20;;;;;;;1.48;0.80;;;22.20;93.50;;;;;;4993159;28;20117;-74
2023/08/08 08:27:46;;;;;;;0.43;0.43;;;22.80;91.50;;;;;;4994901;28;20026;-79
2023/08/08 08:30:12;;;;;;;1.30;0.60;;;22.10;91.90;;;;;;4980736;28;20550;-82
2023/08/08 08:32:40;;;;;;;1.08;0.70;;;21.80;91.90;;;;;;4997035;28;20471;-79
2023/08/08 08:35:06;;;;;;;1.70;0.77;;;21.90;92.40;;;;;;4993825;28;20029;-80
2023/08/08 08:37:32;;;;;;;0.82;0.63;;;22.40;90.00;;;;;;4975711;28;20056;-78
2023/08/08 08:39:58;;;;;;;0.43;0.40;;;22.50;88.50;;;;;;4993292;28;20105;-79
2023/08/08 08:42:26;;;;;;;0.60;0.60;;;22.90;82.70;;;;;;4993456;28;20026;-80
2023/08/08 08:44:53;;;;;;;0.73;0.52;;;23.10;80.40;;;;;;4974601;28;20550;-79
2023/08/08 08:47:21;;;;;;;0.93;0.88;;;23.40;77.60;;;;;;4993464;28;20370;-78
2023/08/08 08:49:46;;;;;;;0.95;0.55;;;23.10;77.50;;;;;;4994646;28;20386;-78
2023/08/08 08:52:13;;;;;;;1.17;0.73;;;23.10;80.20;;;;;;4992713;28;20023;-80
2023/08/08 08:54:39;;;;;;;0.55;0.40;;;24.00;76.10;;;;;;4993013;28;20030;-79
2023/08/08 08:57:05;;;;;;;0.57;0.40;;;23.80;72.10;;;;;;4993490;28;20026;-79
2023/08/08 08:59:30;;;;;;;1.55;0.40;;;23.60;74.60;;;;;;4991433;28;20069;-78
2023/08/08 09:01:56;;;;;;;0.43;0.43;;;23.90;71.70;;;;;;4993039;28;20351;-79
2023/08/08 09:04:23;;;;;;;0.50;0.50;;;24.00;73.20;;;;;;4991636;28;20037;-79
2023/08/08 09:06:50;;;;;;;0.93;0.45;;;24.20;70.90;;;;;;4991200;28;20502;-78
2023/08/08 09:09:17;;;;;;;1.30;0.50;;;23.70;68.90;;;;;;4991168;28;20113;-77
2023/08/08 09:11:45;;;;;;;0.93;0.63;;;23.90;68.30;;;;;;4992191;28;20022;-76
2023/08/08 09:14:24;;;;;;;1.90;0.70;;;23.90;70.80;;;;;;4992237;28;20391;-75
2023/08/08 09:16:51;;;;;;;2.27;0.70;;;23.60;68.40;;;;;;4991670;28;20038;-76
2023/08/08 09:19:20;;;;;;;0.47;0.40;;;23.30;68.70;;;;;;4992508;28;20521;-77
2023/08/08 09:21:46;;;;;;;3.25;0.60;;;23.40;71.20;;;;;;4992406;28;20026;-76
2023/08/08 09:24:12;;;;;;;0.57;0.45;;;23.70;67.50;;;;;;4991659;28;20042;-76
2023/08/08 09:26:39;;;;;;;0.70;0.55;;;23.80;67.20;;;;;;4991884;28;20379;-76
2023/08/08 09:29:05;;;;;;;0.63;0.50;;;23.80;67.50;;;;;;4991651;28;20105;-76
2023/08/08 09:31:33;;;;;;;2.22;1.02;;;24.20;66.60;;;;;;4991077;28;20041;-76
2023/08/08 09:34:01;;;;;;;1.60;0.70;;;23.60;68.70;;;;;;4990426;28;20031;-76
2023/08/08 09:36:27;;;;;;;0.80;0.57;;;23.10;68.40;;;;;;4989003;28;20270;-78
2023/08/08 09:38:55;;;;;;;0.57;0.38;;;22.80;67.70;;;;;;4972687;28;20022;-75
2023/08/08 09:41:22;;;;;;;0.30;0.30;;;22.90;68.00;;;;;;4990029;28;20092;-77
2023/08/08 09:43:49;;;;;;;1.33;0.68;;;22.80;65.70;;;;;;4990382;28;20030;-79
2023/08/08 09:46:15;;;;;;;2.05;1.08;;;23.00;66.40;;;;;;4989798;28;20022;-76
2023/08/08 09:48:41;;;;;;;1.25;0.60;;;22.90;66.60;;;;;;4991851;28;20420;-75
2023/08/08 09:51:08;;;;;;;3.53;0.60;;;23.00;66.60;;;;;;4990387;28;20454;-75
2023/08/08 09:53:34;;;;;;;0.60;0.60;;;22.90;66.90;;;;;;4992216;28;20026;-74
2023/08/08 09:56:04;;;;;;;0.98;0.50;;;22.70;67.50;;;;;;4991998;28;20030;-76
2023/08/08 09:58:30;;;;;;;1.40;0.50;;;22.50;65.10;;;;;;4991307;28;20046;-76
2023/08/08 10:00:56;;;;;;;2.53;0.68;;;22.70;68.70;;;;;;4991817;28;20026;-76
2023/08/08 10:03:22;;;;;;;0.75;0.75;;;22.20;64.90;;;;;;4991778;28;20109;-76
2023/08/08 10:05:48;;;;;;;0.40;0.40;;;22.10;62.50;;;;;;4991795;28;20038;-75
2023/08/08 10:08:18;;;;;;;0.57;0.57;;;22.40;64.00;;;;;;4991661;28;20034;-75
2023/08/08 10:10:47;;;;;;;0.40;0.40;;;22.70;67.70;;;;;;4991985;28;20029;-75
2023/08/08 10:13:23;;;;;;;1.00;0.77;;;22.70;69.00;;;;;;4991794;28;20026;-76
2023/08/08 10:15:50;;;;;;;2.47;0.70;;;22.90;63.80;;;;;;4991725;28;20038;-75
2023/08/08 10:18:16;;;;;;;0.80;0.47;;;23.00;63.60;;;;;;4991294;28;20038;-74
2023/08/08 10:20:47;;;;;;;3.85;1.05;;;23.20;66.00;;;;;;4991489;28;20022;-75
2023/08/08 10:23:16;;;;;;;2.42;1.00;;;23.50;65.50;;;;;;4991235;28;20030;-76
2023/08/08 10:25:46;;;;;;;0.70;0.60;;;23.90;64.10;;;;;;4991024;28;20039;-76
2023/08/08 10:28:14;;;;;;;0.93;0.50;;;24.30;65.60;;;;;;4991332;28;20360;-76
2023/08/08 10:30:52;;;;;;;3.30;0.85;;;23.90;63.70;;;;;;4990721;28;20092;-76
2023/08/08 10:33:21;;;;;;;1.52;0.40;;;23.60;65.00;;;;;;4991080;28;20109;-76
2023/08/08 10:35:58;;;;;;;0.75;0.40;;;23.40;66.90;;;;;;4990371;28;20379;-76
2023/08/08 10:38:39;;;;;;;0.40;0.40;;;23.60;65.30;;;;;;4990944;28;20085;-76
2023/08/08 10:41:08;;;;;;;1.02;0.77;;;23.90;65.40;;;;;;4990766;28;20026;-76
2023/08/08 10:43:33;;;;;;;1.58;0.60;;;23.90;66.50;;;;;;4990933;28;20058;-75
2023/08/08 10:46:03;;;;;;;1.85;0.40;;;23.50;64.90;;;;;;4991142;28;20061;-76
2023/08/08 10:48:30;;;;;;;0.63;0.63;;;23.50;65.70;;;;;;4990710;28;20026;-76
2023/08/08 10:50:58;;;;;;;0.73;0.50;;;23.40;67.10;;;;;;4991347;28;20026;-76
2023/08/08 10:53:28;;;;;;;1.70;0.40;;;23.50;66.30;;;;;;4990825;28;20172;-76
2023/08/08 10:55:58;;;;;;;0.95;0.50;;;23.20;66.90;;;;;;4991401;28;20015;-76
2023/08/08 10:58:38;;;;;;;2.55;0.40;;;22.90;67.90;;;;;;4991153;28;20042;-76
2023/08/08 11:01:08;;;;;;;0.55;0.30;;;22.60;65.50;;;;;;4991257;28;20015;-76
2023/08/08 11:03:39;;;;;;;0.98;0.52;;;22.40;66.20;;;;;;4991513;28;20175;-74
2023/08/08 11:06:08;;;;;;;0.77;0.52;;;22.60;65.80;;;;;;4989968;28;20585;-74
2023/08/08 11:08:34;;;;;;;0.65;0.65;;;23.10;66.90;;;;;;4989462;28;20353;-73
2023/08/08 11:11:00;;;;;;;1.98;0.90;;;23.20;62.70;;;;;;4988957;28;20538;-73
2023/08/08 11:13:26;;;;;;;1.15;1.00;;;23.10;63.60;;;;;;4989266;28;20490;-72
2023/08/08 11:15:52;;;;;;;0.40;0.40;;;23.30;65.60;;;;;;4988859;28;20026;-76
2023/08/08 11:18:18;;;;;;;0.30;0.30;;;23.30;62.70;;;;;;4988477;28;20038;-77
2023/08/08 11:20:44;;;;;;;0.50;0.50;;;23.40;64.70;;;;;;4988772;28;20033;-76
2023/08/08 11:23:12;;;;;;;1.27;0.57;;;23.40;66.30;;;;;;4989586;28;20053;-77
2023/08/08 11:25:41;;;;;;;1.77;0.52;;;23.90;65.50;;;;;;4990524;28;20030;-77
2023/08/08 11:28:07;;;;;;;1.42;0.50;;;23.80;65.80;;;;;;4990408;28;20464;-77
2023/08/08 11:30:37;;;;;;;0.30;0.30;;;24.10;64.00;;;;;;4990400;28;20036;-77
2023/08/08 11:33:03;;;;;;;1.38;0.40;;;24.30;65.90;;;;;;4989995;28;20025;-77
2023/08/08 11:35:29;;;;;;;2.10;0.30;;;24.70;64.00;;;;;;4990342;28;20495;-76
2023/08/08 11:37:58;;;;;;;0.50;0.45;;;24.60;62.80;;;;;;4990730;28;20029;-77
2023/08/08 11:40:26;;;;;;;2.30;0.50;;;23.90;65.20;;;;;;4990749;28;20028;-76
2023/08/08 11:42:53;;;;;;;0.55;0.45;;;23.90;65.00;;;;;;4990383;28;20069;-76
2023/08/08 11:45:19;;;;;;;1.30;1.00;;;23.70;63.90;;;;;;4990226;28;20037;-77
2023/08/08 11:47:52;;;;;;;0.50;0.50;;;23.80;64.50;;;;;;4977554;28;20027;-77
2023/08/08 11:50:22;;;;;;;0.90;0.40;;;23.70;65.50;;;;;;4996762;28;20030;-77
2023/08/08 11:52:50;;;;;;;0.50;0.50;;;23.90;63.60;;;;;;4996827;28;20644;-76
2023/08/08 11:55:16;;;;;;;0.50;0.50;;;23.30;64.20;;;;;;4996900;28;20058;-77
2023/08/08 11:57:42;;;;;;;1.48;0.50;;;23.40;65.70;;;;;;4996600;28;20022;-77
2023/08/08 12:00:12;;;;;;;1.20;0.65;;;23.50;64.40;;;;;;4978982;28;20056;-76
2023/08/08 12:02:47;;;;;;;1.00;0.85;;;23.40;65.80;;;;;;4996278;28;20081;-76
2023/08/08 12:05:16;;;;;;;2.67;0.70;;;24.00;69.10;;;;;;4996520;28;20081;-77
2023/08/08 12:07:44;;;;;;;0.60;0.60;;;24.50;62.80;;;;;;4996780;28;20030;-77
2023/08/08 12:10:18;;;;;;;3.28;1.25;;;24.70;62.40;;;;;;4996814;28;20057;-77
2023/08/08 12:12:45;;;;;;;1.30;0.70;;;23.70;64.10;;;;;;4996669;28;20093;-77
2023/08/08 12:15:11;;;;;;;1.30;0.80;;;23.40;65.50;;;;;;4996640;28;20041;-77
2023/08/08 12:17:38;;;;;;;0.73;0.73;;;23.60;64.80;;;;;;4996319;28;20523;-77
2023/08/08 12:20:09;;;;;;;0.90;0.77;;;24.20;62.80;;;;;;4996521;28;20026;-77
2023/08/08 12:22:35;;;;;;;0.40;0.40;;;24.80;63.80;;;;;;4996592;28;20026;-77
2023/08/08 12:25:01;;;;;;;1.52;0.52;;;24.70;61.10;;;;;;4996670;28;20038;-78
2023/08/08 12:27:29;;;;;;;0.95;0.57;;;24.50;61.80;;;;;;4978915;28;20054;-77
2023/08/08 12:29:55;;;;;;;0.60;0.60;;;24.80;61.70;;;;;;4996579;28;20030;-77
2023/08/08 12:32:23;;;;;;;2.40;0.70;;;25.40;62.40;;;;;;4996102;28;20022;-77
2023/08/08 12:34:49;;;;;;;0.60;0.52;;;27.20;60.00;;;;;;4996499;28;20026;-77
2023/08/08 12:37:15;;;;;;;1.05;0.50;;;27.60;57.20;;;;;;4996386;28;20026;-77
2023/08/08 12:39:41;;;;;;;0.60;0.60;;;27.10;55.50;;;;;;4996633;28;20101;-77
2023/08/08 12:42:06;;;;;;;0.90;0.65;;;25.60;56.80;;;;;;4996543;28;20023;-77
2023/08/08 12:44:32;;;;;;;0.40;0.40;;;24.60;59.50;;;;;;4995917;28;20026;-78
2023/08/08 12:46:58;;;;;;;3.70;0.70;;;24.50;57.00;;;;;;4994116;28;20026;-77